createdAt,value
2022-08-26T00:01:07.491Z,24.07
2022-08-26T00:04:10.278Z,20.97
2022-08-26T00:07:12.133Z,23.90
2022-08-26T00:10:17.297Z,21.85
2022-08-26T00:13:22.015Z,20.35
2022-08-26T00:16:28.336Z,24.37
2022-08-26T00:19:30.136Z,22.87
2022-08-26T00:22:31.766Z,30.88
2022-08-26T00:25:33.512Z,21.88
2022-08-26T00:28:35.488Z,27.00
2022-08-26T00:31:37.890Z,23.63
2022-08-26T00:34:40.651Z,20.33
2022-08-26T00:37:43.234Z,19.98
2022-08-26T00:40:50.368Z,23.00
2022-08-26T00:43:52.646Z,17.98
2022-08-26T00:47:00.083Z,19.60
2022-08-26T00:50:07.376Z,18.23
2022-08-26T00:53:23.982Z,20.38
2022-08-26T00:56:41.106Z,21.83
2022-08-26T00:59:46.484Z,23.83
2022-08-26T01:02:50.569Z,18.40
2022-08-26T01:05:56.152Z,21.10
2022-08-26T01:08:58.325Z,19.98
2022-08-26T01:12:02.962Z,20.70
2022-08-26T01:15:05.977Z,22.50
2022-08-26T01:18:08.711Z,24.70
2022-08-26T01:21:21.662Z,23.25
2022-08-26T01:24:27.606Z,20.58
2022-08-26T01:27:32.603Z,19.88
2022-08-26T01:30:40.439Z,21.15
2022-08-26T01:34:02.017Z,22.90
2022-08-26T01:37:03.722Z,22.40
2022-08-26T01:40:12.403Z,22.45
2022-08-26T01:43:19.616Z,21.48
2022-08-26T01:46:24.636Z,21.55
2022-08-26T01:49:55.709Z,20.00
2022-08-26T01:53:00.908Z,20.58
2022-08-26T01:56:03.988Z,19.58
2022-08-26T01:59:10.728Z,21.60
2022-08-26T02:02:13.947Z,21.23
2022-08-26T02:05:19.339Z,19.83
2022-08-26T02:08:26.075Z,23.33
2022-08-26T02:11:28.383Z,22.52
2022-08-26T02:14:35.049Z,21.65
2022-08-26T02:17:47.257Z,20.42
2022-08-26T02:20:54.233Z,20.17
2022-08-26T02:23:56.467Z,20.83
2022-08-26T02:27:01.473Z,21.17
2022-08-26T02:30:11.210Z,23.73
2022-08-26T02:33:13.318Z,24.25
2022-08-26T02:36:20.876Z,22.03
2022-08-26T02:39:22.769Z,23.25
2022-08-26T02:42:24.496Z,22.85
2022-08-26T02:45:28.022Z,25.98
2022-08-26T02:48:30.311Z,21.48
2022-08-26T02:51:31.992Z,21.70
2022-08-26T02:54:34.958Z,26.40
2022-08-26T02:57:37.642Z,23.98
2022-08-26T03:00:52.531Z,23.38
2022-08-26T03:03:55.098Z,25.63
2022-08-26T03:06:57.054Z,24.53
2022-08-26T03:09:59.075Z,25.52
2022-08-26T03:13:05.146Z,24.77
2022-08-26T03:16:07.638Z,21.45
2022-08-26T03:19:09.656Z,24.50
2022-08-26T03:22:12.023Z,22.73
2022-08-26T03:25:17.011Z,30.70
2022-08-26T03:28:19.356Z,25.77
2022-08-26T03:31:21.516Z,24.70
2022-08-26T03:34:26.284Z,26.25
2022-08-26T03:37:28.020Z,24.87
2022-08-26T03:40:29.811Z,27.08
2022-08-26T03:43:31.472Z,28.25
2022-08-26T03:46:33.635Z,24.67
2022-08-26T03:49:35.927Z,25.63
2022-08-26T03:52:43.025Z,28.97
2022-08-26T03:55:47.651Z,26.55
2022-08-26T03:58:54.211Z,27.60
2022-08-26T04:01:55.864Z,26.98
2022-08-26T04:04:57.684Z,27.15
2022-08-26T04:07:59.551Z,25.87
2022-08-26T04:11:01.611Z,26.75
2022-08-26T04:14:07.286Z,27.60
2022-08-26T04:17:08.936Z,28.67
2022-08-26T04:20:13.928Z,26.33
2022-08-26T04:23:17.872Z,25.83
2022-08-26T04:26:21.188Z,24.50
2022-08-26T04:29:26.528Z,26.17
2022-08-26T04:32:28.583Z,30.77
2022-08-26T04:35:31.428Z,29.55
2022-08-26T04:38:34.487Z,24.00
2022-08-26T04:41:36.926Z,26.23
2022-08-26T04:44:38.565Z,27.02
2022-08-26T04:47:41.184Z,24.92
2022-08-26T04:51:29.767Z,24.35
2022-08-26T04:54:31.515Z,27.03
2022-08-26T04:57:33.678Z,25.73
2022-08-26T05:00:36.055Z,27.15
2022-08-26T05:08:14.974Z,28.83
2022-08-26T05:11:17.202Z,28.27
2022-08-26T05:14:22.233Z,27.27
2022-08-26T05:17:27.299Z,27.05
2022-08-26T05:20:28.965Z,25.45
2022-08-26T05:23:34.066Z,29.00
2022-08-26T05:26:36.176Z,25.07
2022-08-26T05:29:37.870Z,24.00
2022-08-26T05:32:39.566Z,22.95
2022-08-26T05:35:43.075Z,24.70
2022-08-26T05:38:44.918Z,25.50
2022-08-26T05:41:46.826Z,26.83
2022-08-26T05:44:55.412Z,25.27
2022-08-26T05:47:57.975Z,25.90
2022-08-26T05:51:04.972Z,22.88
2022-08-26T05:54:10.326Z,24.48
2022-08-26T05:57:13.877Z,22.20
2022-08-26T06:00:16.272Z,22.63
2022-08-26T06:03:18.847Z,21.55
2022-08-26T06:06:27.584Z,22.52
2022-08-26T06:09:30.823Z,22.02
2022-08-26T06:12:33.762Z,21.23
2022-08-26T06:15:39.728Z,21.10
2022-08-26T06:18:46.415Z,19.20
2022-08-26T06:21:51.313Z,21.15
2022-08-26T06:25:15.407Z,21.33
2022-08-26T06:28:17.540Z,22.17
2022-08-26T06:31:19.879Z,19.67
2022-08-26T06:34:22.532Z,19.92
2022-08-26T06:37:28.314Z,21.40
2022-08-26T06:40:31.328Z,22.83
2022-08-26T06:43:33.160Z,22.33
2022-08-26T06:46:35.378Z,19.23
2022-08-26T06:49:37.341Z,19.38
2022-08-26T06:52:42.445Z,19.73
2022-08-26T06:55:46.211Z,19.85
2022-08-26T06:58:48.703Z,19.33
2022-08-26T07:01:50.402Z,17.07
2022-08-26T07:04:52.061Z,20.55
2022-08-26T07:07:58.451Z,20.02
2022-08-26T07:11:05.619Z,20.90
2022-08-26T07:14:07.717Z,18.57
2022-08-26T07:17:13.759Z,20.87
2022-08-26T07:20:16.061Z,19.85
2022-08-26T07:23:18.758Z,21.17
2022-08-26T07:26:24.893Z,22.10
2022-08-26T07:29:26.663Z,18.67
2022-08-26T07:32:28.536Z,16.03
2022-08-26T07:35:30.206Z,18.13
2022-08-26T07:38:33.842Z,17.80
2022-08-26T07:41:36.652Z,20.25
2022-08-26T07:44:39.712Z,20.73
2022-08-26T07:47:42.450Z,18.87
2022-08-26T07:50:50.505Z,19.55
2022-08-26T07:53:53.389Z,17.27
2022-08-26T07:56:55.893Z,20.52
2022-08-26T07:59:58.064Z,20.27
2022-08-26T08:03:01.363Z,18.30
2022-08-26T08:06:03.101Z,21.80
2022-08-26T08:09:05.115Z,21.75
2022-08-26T08:12:09.524Z,18.13
2022-08-26T08:15:17.108Z,18.97
2022-08-26T08:18:20.351Z,20.17
2022-08-26T08:21:26.536Z,18.88
2022-08-26T08:24:28.584Z,20.45
2022-08-26T08:27:33.622Z,25.50
2022-08-26T08:30:39.154Z,20.90
2022-08-26T08:33:40.814Z,23.77
2022-08-26T08:36:42.847Z,23.60
2022-08-26T08:39:45.459Z,24.10
2022-08-26T08:42:59.221Z,18.48
2022-08-26T08:46:07.750Z,17.87
2022-08-26T08:49:11.080Z,19.00
2022-08-26T08:52:31.132Z,17.05
2022-08-26T08:55:41.996Z,18.13
2022-08-26T08:58:46.561Z,22.67
2022-08-26T09:01:59.868Z,17.00
2022-08-26T09:05:20.057Z,17.37
2022-08-26T09:08:27.469Z,17.98
2022-08-26T09:11:30.402Z,17.35
2022-08-26T09:14:32.018Z,16.10
2022-08-26T09:17:51.899Z,18.03
2022-08-26T09:20:59.356Z,15.60
2022-08-26T09:24:01.126Z,20.20
2022-08-26T09:27:02.734Z,19.13
2022-08-26T09:30:11.481Z,25.55
2022-08-26T09:33:18.811Z,19.83
2022-08-26T09:36:35.389Z,26.17
2022-08-26T09:39:40.831Z,19.98
2022-08-26T09:42:42.933Z,16.48
2022-08-26T09:45:50.630Z,15.60
2022-08-26T09:48:53.272Z,16.53
2022-08-26T09:52:21.381Z,16.10
2022-08-26T09:55:23.732Z,16.48
2022-08-26T10:01:41.861Z,13.60
2022-08-26T10:04:52.101Z,15.47
2022-08-26T10:07:53.914Z,15.60
2022-08-26T10:10:58.949Z,15.55
2022-08-26T10:14:17.257Z,12.02
2022-08-26T10:17:46.981Z,18.30
2022-08-26T10:20:56.461Z,12.10
2022-08-26T10:24:02.026Z,11.43
2022-08-26T10:27:31.593Z,13.15
2022-08-26T10:30:42.954Z,13.23
2022-08-26T10:33:44.799Z,16.27
2022-08-26T10:37:15.919Z,15.33
2022-08-26T10:40:24.110Z,11.80
2022-08-26T10:43:30.388Z,14.02
2022-08-26T10:46:44.298Z,16.90
2022-08-26T10:49:49.472Z,13.63
2022-08-26T10:53:33.108Z,14.63
2022-08-26T10:56:49.888Z,15.43
2022-08-26T11:00:29.493Z,17.38
2022-08-26T11:03:50.675Z,18.38
2022-08-26T11:07:31.602Z,15.32
2022-08-26T11:10:44.856Z,16.03
2022-08-26T11:14:01.907Z,14.90
2022-08-26T11:17:11.836Z,19.33
2022-08-26T11:20:22.673Z,15.73
2022-08-26T11:23:28.201Z,15.43
2022-08-26T11:26:55.549Z,13.63
2022-08-26T11:30:00.600Z,20.43
2022-08-26T11:33:02.773Z,17.58
2022-08-26T11:36:11.532Z,15.50
2022-08-26T11:39:25.464Z,15.68
2022-08-26T11:42:41.690Z,16.40
2022-08-26T11:45:47.514Z,12.93
2022-08-26T11:48:49.349Z,16.08
2022-08-26T11:51:51.381Z,16.27
2022-08-26T11:55:14.331Z,16.58
2022-08-26T11:58:16.527Z,16.57
2022-08-26T12:01:39.934Z,15.53
2022-08-26T12:04:46.390Z,14.43
2022-08-26T12:07:50.942Z,12.20
2022-08-26T12:11:11.439Z,16.92
2022-08-26T12:14:22.400Z,15.80
2022-08-26T12:17:27.898Z,13.17
2022-08-26T12:20:48.837Z,16.35
2022-08-26T12:23:54.592Z,16.30
2022-08-26T12:27:30.914Z,15.15
2022-08-26T12:30:32.973Z,13.37
2022-08-26T12:33:36.369Z,11.57
2022-08-26T12:36:46.481Z,12.60
2022-08-26T12:39:49.164Z,10.85
2022-08-26T12:42:51.270Z,11.50
2022-08-26T12:45:58.401Z,10.83
2022-08-26T12:49:03.901Z,10.40
2022-08-26T12:52:07.616Z,13.27
2022-08-26T12:55:28.616Z,12.13
2022-08-26T12:58:33.084Z,10.82
2022-08-26T13:01:42.906Z,14.03
2022-08-26T13:04:46.149Z,10.30
2022-08-26T13:08:24.437Z,8.55
2022-08-26T13:11:26.070Z,11.73
2022-08-26T13:14:27.769Z,10.32
2022-08-26T13:17:30.661Z,12.63
2022-08-26T13:20:32.612Z,11.13
2022-08-26T13:23:34.423Z,12.13
2022-08-26T13:26:36.189Z,13.00
2022-08-26T13:29:38.260Z,13.15
2022-08-26T13:32:40.555Z,10.33
2022-08-26T13:35:44.510Z,12.43
2022-08-26T13:38:48.423Z,11.13
2022-08-26T13:41:54.380Z,14.23
2022-08-26T13:44:58.159Z,13.13
2022-08-26T13:48:00.487Z,14.57
2022-08-26T13:51:02.917Z,13.07
2022-08-26T13:54:09.926Z,12.23
2022-08-26T13:57:11.543Z,10.38
2022-08-26T14:00:15.145Z,12.00
2022-08-26T14:03:17.179Z,11.43
2022-08-26T14:06:19.300Z,16.17
2022-08-26T14:09:20.928Z,13.80
2022-08-26T14:12:22.813Z,14.45
2022-08-26T14:15:25.195Z,15.40
2022-08-26T14:18:33.348Z,18.67
2022-08-26T14:21:37.891Z,16.43
2022-08-26T14:24:39.537Z,18.75
2022-08-26T14:27:44.793Z,16.65
2022-08-26T14:30:53.210Z,17.95
2022-08-26T14:33:58.440Z,15.67
2022-08-26T14:37:07.659Z,17.97
2022-08-26T14:40:10.647Z,18.45
2022-08-26T14:43:15.203Z,18.98
2022-08-26T14:46:18.405Z,17.17
2022-08-26T14:49:21.816Z,18.33
2022-08-26T14:52:23.555Z,15.53
2022-08-26T14:55:26.334Z,15.93
2022-08-26T14:58:32.939Z,15.32
2022-08-26T15:01:37.112Z,18.23
2022-08-26T15:04:39.228Z,16.57
2022-08-26T15:07:41.118Z,13.90
2022-08-26T15:10:42.802Z,15.35
2022-08-26T15:13:45.799Z,13.43
2022-08-26T15:16:53.979Z,12.15
2022-08-26T15:19:55.643Z,12.63
2022-08-26T15:22:58.221Z,13.33
2022-08-26T15:26:04.373Z,10.80
2022-08-26T15:29:06.752Z,13.77
2022-08-26T15:32:08.653Z,13.13
2022-08-26T15:35:10.407Z,12.10
2022-08-26T15:38:12.918Z,14.80
2022-08-26T15:41:14.820Z,15.75
2022-08-26T15:44:18.453Z,17.77
2022-08-26T15:47:20.234Z,14.23
2022-08-26T15:50:22.202Z,14.47
2022-08-26T15:53:29.546Z,11.93
2022-08-26T15:56:34.445Z,12.38
2022-08-26T15:59:36.586Z,12.55
2022-08-26T16:02:38.478Z,12.48
2022-08-26T16:05:43.610Z,15.80
2022-08-26T16:08:45.964Z,12.80
2022-08-26T16:11:47.695Z,14.35
2022-08-26T16:14:52.689Z,14.32
2022-08-26T16:17:54.515Z,17.52
2022-08-26T16:21:13.381Z,15.13
2022-08-26T16:24:15.994Z,11.83
2022-08-26T16:27:17.698Z,15.45
2022-08-26T16:30:20.715Z,15.02
2022-08-26T16:33:29.170Z,13.38
2022-08-26T16:36:31.654Z,12.93
2022-08-26T16:39:33.361Z,16.33
2022-08-26T16:42:41.959Z,15.00
2022-08-26T16:45:43.595Z,15.75
2022-08-26T16:48:45.690Z,13.73
2022-08-26T16:51:47.528Z,16.70
2022-08-26T16:54:49.406Z,13.77
2022-08-26T16:57:51.503Z,15.63
2022-08-26T17:00:53.160Z,16.33
2022-08-26T17:03:54.924Z,21.15
2022-08-26T17:06:56.729Z,28.83
2022-08-26T17:09:58.928Z,19.90
2022-08-26T17:13:00.804Z,12.13
2022-08-26T17:16:04.233Z,13.93
2022-08-26T17:19:09.350Z,15.45
2022-08-26T17:22:12.153Z,16.77
2022-08-26T17:25:18.277Z,18.07
2022-08-26T17:28:19.914Z,18.85
2022-08-26T17:31:23.422Z,20.55
2022-08-26T17:34:26.424Z,18.60
2022-08-26T17:37:28.349Z,21.43
2022-08-26T17:40:31.686Z,17.67
2022-08-26T17:43:34.199Z,29.35
2022-08-26T17:46:38.424Z,26.15
2022-08-26T17:49:40.924Z,22.45
2022-08-26T17:52:44.018Z,19.30
2022-08-26T17:55:46.566Z,19.77
2022-08-26T17:58:51.250Z,19.95
2022-08-26T18:01:55.598Z,18.13
2022-08-26T18:04:58.056Z,14.60
2022-08-26T18:12:41.010Z,15.37
2022-08-26T18:15:45.432Z,14.05
2022-08-26T18:18:48.623Z,18.15
2022-08-26T18:21:50.402Z,17.35
2022-08-26T18:24:59.075Z,16.63
2022-08-26T18:28:01.189Z,18.47
2022-08-26T18:31:05.507Z,17.00
2022-08-26T18:34:07.614Z,15.70
2022-08-26T18:40:17.660Z,14.87
2022-08-26T18:43:19.493Z,17.40
2022-08-26T18:46:23.070Z,19.02
2022-08-26T18:49:24.832Z,18.67
2022-08-26T18:52:27.483Z,16.80
2022-08-26T18:55:29.065Z,20.03
2022-08-26T18:58:30.612Z,17.83
2022-08-26T19:01:34.266Z,17.85
2022-08-26T19:04:38.596Z,17.73
2022-08-26T19:07:40.373Z,17.65
2022-08-26T19:10:43.185Z,17.13
2022-08-26T19:13:45.346Z,17.50
2022-08-26T19:16:50.065Z,17.80
2022-08-26T19:19:53.533Z,17.88
2022-08-26T19:22:57.403Z,18.35
2022-08-26T19:26:04.800Z,14.63
2022-08-26T19:29:06.743Z,21.73
2022-08-26T19:32:08.797Z,19.15
2022-08-26T19:35:10.604Z,18.02
2022-08-26T19:38:12.354Z,16.58
2022-08-26T19:41:16.536Z,19.63
2022-08-26T19:44:39.316Z,19.77
2022-08-26T19:47:41.012Z,16.83
2022-08-26T19:50:46.072Z,17.95
2022-08-26T19:53:48.819Z,16.23
2022-08-26T19:56:51.064Z,18.10
2022-08-26T19:59:52.703Z,19.30
2022-08-26T20:02:55.507Z,18.92
2022-08-26T20:05:57.207Z,19.45
2022-08-26T20:08:58.879Z,18.48
2022-08-26T20:12:01.169Z,17.23
2022-08-26T20:15:05.127Z,20.23
2022-08-26T20:18:27.803Z,21.60
2022-08-26T20:21:35.545Z,20.77
2022-08-26T20:24:37.189Z,16.00
2022-08-26T20:27:38.871Z,14.90
2022-08-26T20:30:40.533Z,15.33
2022-08-26T20:33:46.435Z,16.50
2022-08-26T20:36:50.120Z,15.80
2022-08-26T20:39:51.813Z,12.82
2022-08-26T20:42:53.509Z,13.33
2022-08-26T20:45:55.419Z,16.15
2022-08-26T20:48:58.193Z,17.17
2022-08-26T20:52:00.358Z,14.45
2022-08-26T20:55:02.466Z,14.23
2022-08-26T20:58:04.242Z,16.87
2022-08-26T21:01:08.174Z,18.20
2022-08-26T21:04:14.035Z,17.10
2022-08-26T21:07:15.693Z,15.35
2022-08-26T21:10:19.590Z,15.57
2022-08-26T21:13:21.821Z,14.97
2022-08-26T21:16:23.548Z,13.80
2022-08-26T21:19:25.438Z,15.00
2022-08-26T21:22:28.232Z,17.23
2022-08-26T21:25:29.983Z,17.90
2022-08-26T21:28:31.745Z,14.53
2022-08-26T21:31:33.678Z,18.20
2022-08-26T21:34:35.442Z,15.90
2022-08-26T21:37:37.207Z,15.02
2022-08-26T21:40:38.814Z,17.40
2022-08-26T21:43:41.626Z,19.13
2022-08-26T21:46:45.510Z,16.25
2022-08-26T21:49:47.762Z,16.42
2022-08-26T21:52:49.495Z,17.98
2022-08-26T21:55:51.178Z,15.45
2022-08-26T21:58:55.020Z,15.03
2022-08-26T22:01:57.568Z,15.70
2022-08-26T22:04:59.217Z,18.13
2022-08-26T22:08:00.870Z,15.65
2022-08-26T22:11:02.840Z,15.10
2022-08-26T22:14:05.004Z,16.10
2022-08-26T22:17:06.740Z,15.60
2022-08-26T22:20:16.572Z,15.38
2022-08-26T22:23:20.215Z,13.23
2022-08-26T22:26:25.451Z,12.68
2022-08-26T22:29:27.644Z,13.83
2022-08-26T22:32:29.417Z,17.67
2022-08-26T22:35:31.392Z,14.63
2022-08-26T22:38:33.195Z,13.13
2022-08-26T22:41:35.355Z,14.18
2022-08-26T22:44:37.567Z,17.87
2022-08-26T22:47:40.252Z,15.50
2022-08-26T22:50:43.842Z,14.52
2022-08-26T22:53:45.796Z,17.85
2022-08-26T22:56:47.622Z,16.73
2022-08-26T22:59:49.282Z,15.20
2022-08-26T23:02:50.997Z,17.93
2022-08-26T23:05:52.799Z,14.73
2022-08-26T23:08:57.200Z,17.95
2022-08-26T23:11:58.910Z,17.13
2022-08-26T23:15:01.373Z,17.57
2022-08-26T23:18:03.803Z,17.03
2022-08-26T23:21:06.060Z,21.38
2022-08-26T23:24:11.036Z,16.40
2022-08-26T23:27:12.754Z,16.25
2022-08-26T23:30:18.799Z,15.83
2022-08-26T23:33:22.606Z,17.92
2022-08-26T23:36:24.576Z,18.83
2022-08-26T23:39:26.909Z,18.00
2022-08-26T23:42:29.042Z,15.88
2022-08-26T23:45:35.834Z,19.10
2022-08-26T23:48:37.740Z,16.27
2022-08-26T23:51:57.825Z,17.08
2022-08-26T23:54:59.445Z,19.60
2022-08-26T23:58:01.117Z,15.90
